Time;durP1;ratioP1;P1;durP2;ratioP2;P2;SDS_P1;SDS_P2;PMS_P1;PMS_P2;Temp;Humidity;BMP_temperature;BMP_pressure;BME280_temperature;BME280_humidity;BME280_pressure;Samples;Min_cycle;Max_cycle;Signal;HPM_P1;HPM_P2
2022/06/18 00:01:53;;;;;;;4.80;3.00;;;;;;;23.50;52.46;101651.97;5013135;28;20030;-67
2022/06/18 00:04:25;;;;;;;5.95;3.00;;;;;;;23.54;53.04;101641.63;4993391;28;20394;-67
2022/06/18 00:06:52;;;;;;;7.03;2.88;;;;;;;23.44;53.30;101651.75;5013077;28;20021;-67
2022/06/18 00:09:21;;;;;;;3.67;2.67;;;;;;;23.29;54.30;101646.91;5014137;28;20034;-68
2022/06/18 00:14:38;;;;;;;6.60;2.83;;;;;;;23.25;54.17;101642.81;5014019;28;20568;-67
2022/06/18 00:17:17;;;;;;;5.20;3.00;;;;;;;23.27;53.82;101642.69;4977853;28;20038;-67
2022/06/18 00:19:45;;;;;;;6.50;3.33;;;;;;;23.26;54.47;101640.94;5011367;28;20033;-68
2022/06/18 00:22:22;;;;;;;8.90;2.85;;;;;;;23.17;54.27;101637.34;4996703;28;20022;-67
2022/06/18 00:24:49;;;;;;;4.10;2.78;;;;;;;23.09;55.22;101640.03;5014254;28;20389;-68
2022/06/18 00:27:16;;;;;;;3.38;2.97;;;;;;;22.92;55.09;101630.03;5012758;28;20037;-67
2022/06/18 00:29:42;;;;;;;10.23;3.23;;;;;;;23.06;54.72;101635.75;5011746;28;20029;-68
2022/06/18 00:32:08;;;;;;;5.97;3.40;;;;;;;23.02;54.66;101619.94;5013690;28;20026;-68
2022/06/18 00:34:34;;;;;;;4.72;2.90;;;;;;;23.00;55.13;101633.69;4979917;28;20496;-67
2022/06/18 00:36:59;;;;;;;4.20;2.75;;;;;;;22.84;55.74;101625.38;5013428;28;20021;-68
2022/06/18 00:39:30;;;;;;;5.50;2.83;;;;;;;22.82;56.05;101636.38;4995720;28;20571;-67
2022/06/18 00:42:02;;;;;;;7.70;3.10;;;;;;;22.90;55.35;101638.31;5013957;28;20073;-67
2022/06/18 00:44:32;;;;;;;5.18;2.90;;;;;;;22.80;55.94;101634.84;5013033;28;20381;-67
2022/06/18 00:47:01;;;;;;;3.45;2.80;;;;;;;22.85;55.85;101635.22;5014137;28;20028;-67
2022/06/18 00:50:01;;;;;;;5.90;2.90;;;;;;;22.85;55.24;101633.38;4994065;28;20481;-68
2022/06/18 00:52:39;;;;;;;5.50;2.97;;;;;;;22.75;56.06;101626.31;5012967;28;20089;-67
2022/06/18 00:55:14;;;;;;;8.77;3.58;;;;;;;22.77;55.87;101627.03;5013593;28;20029;-68
2022/06/18 00:57:54;;;;;;;4.93;3.20;;;;;;;22.74;55.86;101628.19;5012719;28;20030;-68
2022/06/18 01:00:28;;;;;;;7.88;3.03;;;;;;;22.61;57.01;101631.28;5013488;28;20029;-67
2022/06/18 01:02:55;;;;;;;4.28;3.60;;;;;;;22.61;57.25;101631.28;5012760;28;20026;-68
2022/06/18 01:05:26;;;;;;;6.18;3.50;;;;;;;22.46;57.53;101630.16;5013271;28;20432;-68
2022/06/18 01:07:58;;;;;;;6.05;3.17;;;;;;;22.38;57.70;101630.94;5013340;28;20048;-67
2022/06/18 01:10:35;;;;;;;5.88;3.05;;;;;;;22.36;58.02;101626.69;4995673;28;20452;-68
2022/06/18 01:13:06;;;;;;;4.85;3.33;;;;;;;22.36;57.41;101627.53;5012621;28;20152;-68
2022/06/18 01:15:32;;;;;;;5.63;3.50;;;;;;;22.29;58.43;101622.84;5012840;28;20029;-67
2022/06/18 01:17:59;;;;;;;7.18;3.63;;;;;;;22.13;59.11;101618.94;5013112;28;20033;-67
2022/06/18 01:20:25;;;;;;;7.13;3.40;;;;;;;22.14;58.68;101620.66;5013088;28;20026;-67
2022/06/18 01:22:52;;;;;;;5.53;3.60;;;;;;;22.23;58.79;101608.06;5012746;28;20061;-68
2022/06/18 01:25:18;;;;;;;7.65;3.35;;;;;;;22.14;59.12;101611.66;4994571;28;20481;-68
2022/06/18 01:27:43;;;;;;;8.43;3.80;;;;;;;22.05;59.46;101616.16;5011587;28;20080;-68
2022/06/18 01:30:14;;;;;;;8.38;3.85;;;;;;;21.85;60.07;101609.16;4995009;28;20417;-67
2022/06/18 01:32:42;;;;;;;5.80;3.60;;;;;;;21.94;59.67;101616.34;5012502;28;20026;-67
2022/06/18 01:35:09;;;;;;;6.18;3.70;;;;;;;21.82;60.25;101618.44;5012088;28;20022;-68
2022/06/18 01:37:35;;;;;;;9.95;3.67;;;;;;;21.91;60.04;101616.66;5012483;28;20381;-68
2022/06/18 01:40:01;;;;;;;3.90;3.33;;;;;;;21.81;59.80;101605.06;5012458;28;20057;-68
2022/06/18 01:42:35;;;;;;;4.43;3.72;;;;;;;21.93;59.70;101607.38;5011928;28;20053;-68
2022/06/18 01:45:10;;;;;;;6.07;3.70;;;;;;;21.97;59.55;101611.50;5011877;28;20028;-67
2022/06/18 01:47:40;;;;;;;4.20;3.65;;;;;;;21.85;60.47;101612.72;5012337;28;20492;-68
2022/06/18 01:50:16;;;;;;;6.68;3.80;;;;;;;21.95;60.05;101616.22;5011910;28;20152;-68
2022/06/18 01:52:48;;;;;;;6.03;3.80;;;;;;;21.76;60.57;101602.78;5012333;28;20117;-68
2022/06/18 01:55:22;;;;;;;6.85;3.63;;;;;;;21.83;60.24;101603.06;5012495;28;20030;-67
2022/06/18 01:57:53;;;;;;;5.97;3.78;;;;;;;21.64;61.19;101599.44;5011958;28;20043;-67
2022/06/18 02:00:22;;;;;;;5.25;3.83;;;;;;;21.57;61.19;101608.31;5011446;28;20044;-68
2022/06/18 02:02:48;;;;;;;7.53;3.80;;;;;;;21.46;61.35;101590.41;4994037;28;20028;-67
2022/06/18 02:05:15;;;;;;;5.00;3.92;;;;;;;21.63;61.15;101613.13;4994132;28;20034;-67
2022/06/18 02:07:43;;;;;;;6.28;4.00;;;;;;;21.49;61.58;101603.66;5009016;28;20053;-68
2022/06/18 02:10:13;;;;;;;7.10;4.00;;;;;;;21.44;61.63;101601.41;5011873;28;20041;-68
2022/06/18 02:12:40;;;;;;;5.70;3.47;;;;;;;21.53;61.81;101595.09;5011547;28;20022;-67
2022/06/18 02:15:14;;;;;;;4.35;3.95;;;;;;;21.52;61.75;101603.34;5012132;28;20060;-68
2022/06/18 02:17:41;;;;;;;6.90;4.63;;;;;;;21.49;62.04;101596.38;5011555;28;20022;-67
2022/06/18 02:20:13;;;;;;;4.50;4.07;;;;;;;21.38;62.22;101591.16;5012318;28;20389;-67
2022/06/18 02:22:51;;;;;;;4.75;3.75;;;;;;;21.38;61.80;101596.56;5011894;28;20022;-67
2022/06/18 02:25:19;;;;;;;6.68;4.20;;;;;;;21.31;62.53;101598.13;4993917;28;20034;-68
2022/06/18 02:27:45;;;;;;;4.68;4.25;;;;;;;21.24;63.06;101597.03;5011478;28;20773;-67
2022/06/18 02:30:21;;;;;;;5.00;4.47;;;;;;;21.33;62.29;101602.41;5011129;28;20461;-67
2022/06/18 02:33:09;;;;;;;5.18;4.38;;;;;;;21.22;62.90;101597.16;4993598;28;20026;-67
2022/06/18 02:35:36;;;;;;;7.32;5.25;;;;;;;21.19;62.90;101594.75;5011711;28;20045;-68
2022/06/18 02:38:12;;;;;;;9.52;5.78;;;;;;;21.21;62.92;101603.59;5010222;28;20489;-68
2022/06/18 02:40:38;;;;;;;7.43;4.45;;;;;;;21.23;62.67;101595.31;5010517;28;20393;-67
2022/06/18 02:43:04;;;;;;;10.18;5.18;;;;;;;21.23;62.43;101601.56;5010758;28;20124;-68
2022/06/18 02:45:39;;;;;;;7.20;4.70;;;;;;;21.10;63.37;101590.25;5011719;28;20044;-68
2022/06/18 02:48:08;;;;;;;5.60;4.30;;;;;;;21.06;63.24;101588.81;5011485;28;20057;-68
2022/06/18 02:50:37;;;;;;;6.65;5.00;;;;;;;20.96;63.60;101580.72;4992630;28;20112;-68
2022/06/18 02:53:04;;;;;;;5.07;4.38;;;;;;;21.03;62.64;101589.97;5011034;28;20065;-68
2022/06/18 02:55:33;;;;;;;7.97;5.18;;;;;;;21.09;62.79;101589.41;5010528;28;20084;-68
2022/06/18 02:58:04;;;;;;;10.82;5.38;;;;;;;21.16;62.78;101595.06;5010916;28;20030;-68
2022/06/18 03:00:36;;;;;;;8.77;5.35;;;;;;;21.10;62.44;101588.38;5011425;28;20621;-67
2022/06/18 03:03:01;;;;;;;6.30;5.05;;;;;;;21.00;63.09;101584.88;4993615;28;20032;-67
2022/06/18 03:05:28;;;;;;;11.57;5.35;;;;;;;21.04;63.12;101586.28;5010819;28;20030;-68
2022/06/18 03:07:53;;;;;;;9.15;5.60;;;;;;;21.07;62.67;101585.97;5011222;28;20258;-68
2022/06/18 03:13:06;;;;;;;8.70;5.22;;;;;;;21.02;63.34;101592.81;5010864;28;20041;-67
2022/06/18 03:15:32;;;;;;;5.80;5.20;;;;;;;21.01;63.40;101591.97;5010531;28;20038;-67
2022/06/18 03:18:00;;;;;;;5.95;5.25;;;;;;;20.94;63.66;101593.56;5011110;28;20037;-68
2022/06/18 03:20:55;;;;;;;;;;;;;;;21.22;61.26;101596.31;5011955;28;20029;-68
2022/06/18 03:23:23;;;;;;;6.78;5.63;;;;;;;21.05;63.02;101600.63;4908154;28;20039;-68
2022/06/18 03:25:49;;;;;;;9.15;5.43;;;;;;;21.01;63.71;101601.94;5010964;28;20104;-67
2022/06/18 03:28:15;;;;;;;7.15;5.38;;;;;;;20.97;63.14;101601.38;5009698;28;20120;-68
2022/06/18 03:30:42;;;;;;;10.80;5.95;;;;;;;20.96;62.85;101596.97;5008609;28;20469;-68
2022/06/18 03:33:09;;;;;;;8.85;5.57;;;;;;;20.83;64.00;101586.47;5009682;28;20568;-68
2022/06/18 03:35:35;;;;;;;9.43;5.60;;;;;;;20.84;64.39;101606.25;5011055;28;20129;-68
2022/06/18 03:38:00;;;;;;;12.00;6.28;;;;;;;20.97;62.96;101595.09;4992961;28;20030;-67
2022/06/18 03:40:28;;;;;;;12.20;5.60;;;;;;;20.95;63.27;101605.25;5029231;28;20459;-68
2022/06/18 03:42:56;;;;;;;7.75;5.70;;;;;;;20.87;63.74;101595.97;4993284;28;20042;-67
2022/06/18 03:45:22;;;;;;;9.93;5.85;;;;;;;20.89;64.18;101598.56;5010855;28;20030;-67
2022/06/18 03:47:48;;;;;;;11.30;6.35;;;;;;;20.92;63.93;101603.66;4993424;28;20148;-67
2022/06/18 03:50:18;;;;;;;9.32;6.03;;;;;;;20.81;64.32;101610.09;5010304;28;20463;-67
2022/06/18 03:52:43;;;;;;;8.25;5.57;;;;;;;20.90;64.41;101605.66;5010400;28;20065;-68
2022/06/18 03:55:11;;;;;;;10.75;5.80;;;;;;;20.80;64.80;101607.53;4996627;28;20092;-68
2022/06/18 03:57:37;;;;;;;10.23;6.60;;;;;;;20.78;64.78;101601.41;4996444;28;20393;-67
2022/06/18 04:00:04;;;;;;;9.95;5.97;;;;;;;20.80;64.85;101605.69;5014462;28;20025;-68
2022/06/18 04:02:30;;;;;;;6.20;5.60;;;;;;;20.86;64.87;101598.84;5013244;28;20022;-67
2022/06/18 04:04:56;;;;;;;10.18;6.13;;;;;;;20.84;64.60;101601.69;4997281;28;20022;-68
2022/06/18 04:07:25;;;;;;;12.82;5.85;;;;;;;20.95;64.44;101592.56;4980216;28;20042;-67
2022/06/18 04:09:54;;;;;;;12.48;6.18;;;;;;;20.77;65.17;101587.06;5014689;28;20025;-68
2022/06/18 04:12:20;;;;;;;8.77;6.72;;;;;;;20.91;64.90;101584.88;5013225;28;20116;-67
2022/06/18 04:14:46;;;;;;;11.63;6.18;;;;;;;20.90;65.56;101580.47;5012986;28;20033;-68
2022/06/18 04:17:14;;;;;;;9.20;6.10;;;;;;;20.88;65.21;101577.91;4996821;28;20080;-68
2022/06/18 04:19:40;;;;;;;12.98;6.60;;;;;;;20.90;65.96;101580.47;5014075;28;20026;-68
2022/06/18 04:22:06;;;;;;;10.23;6.55;;;;;;;20.85;65.72;101583.59;5013669;28;20541;-67
2022/06/18 04:24:32;;;;;;;9.88;6.57;;;;;;;20.90;65.78;101586.72;4995577;28;20037;-68
2022/06/18 04:26:58;;;;;;;8.15;6.35;;;;;;;20.89;65.81;101589.59;4977920;28;20069;-68
2022/06/18 04:29:24;;;;;;;7.95;6.00;;;;;;;20.84;65.27;101576.50;4979289;28;20041;-68
2022/06/18 04:31:50;;;;;;;14.52;6.82;;;;;;;20.92;65.07;101587.44;5013754;28;20025;-67
2022/06/18 04:34:15;;;;;;;9.95;6.90;;;;;;;20.95;65.68;101587.16;5013553;28;20034;-68
2022/06/18 04:36:43;;;;;;;10.70;6.82;;;;;;;20.98;64.26;101589.56;4995835;28;20041;-68
2022/06/18 04:39:10;;;;;;;11.02;7.25;;;;;;;20.94;65.63;101582.75;4994782;28;20034;-68
2022/06/18 04:41:36;;;;;;;9.75;6.97;;;;;;;21.05;64.85;101587.13;5013339;28;20524;-68
2022/06/18 04:44:02;;;;;;;11.77;7.55;;;;;;;21.06;64.23;101592.38;5012487;28;20026;-68
2022/06/18 04:46:28;;;;;;;12.13;7.28;;;;;;;21.05;64.01;101590.66;4996199;28;20132;-67
2022/06/18 04:48:53;;;;;;;10.70;7.10;;;;;;;21.07;64.57;101588.69;5011370;28;20025;-67
2022/06/18 04:51:19;;;;;;;11.35;7.80;;;;;;;21.07;63.93;101585.97;4995546;28;20037;-68
2022/06/18 04:53:48;;;;;;;11.90;7.32;;;;;;;21.22;63.86;101590.91;5013075;28;20080;-67
2022/06/18 04:56:13;;;;;;;13.87;7.73;;;;;;;21.20;63.63;101584.78;4979604;28;20044;-68
2022/06/18 04:58:41;;;;;;;13.43;7.95;;;;;;;21.28;63.79;101588.47;5011526;28;20644;-68
2022/06/18 05:01:12;;;;;;;9.82;8.07;;;;;;;21.27;63.63;101585.91;5015849;28;20029;-67
2022/06/18 05:03:38;;;;;;;10.60;8.57;;;;;;;21.29;63.72;101592.84;5026867;28;20028;-67
2022/06/18 05:06:04;;;;;;;11.68;8.02;;;;;;;21.36;63.98;101592.28;4978682;28;20037;-67
2022/06/18 05:08:30;;;;;;;11.75;7.75;;;;;;;21.40;63.56;101586.44;5011762;28;20112;-67
2022/06/18 05:10:55;;;;;;;9.90;8.30;;;;;;;21.41;63.77;101587.28;4995608;28;20113;-67
2022/06/18 05:13:23;;;;;;;13.55;8.68;;;;;;;21.42;63.99;101589.88;4978405;28;20474;-67
2022/06/18 05:15:52;;;;;;;10.02;7.13;;;;;;;21.50;64.49;101589.97;5012892;28;20034;-68
2022/06/18 05:18:19;;;;;;;11.20;7.47;;;;;;;21.52;63.94;101585.25;4994547;28;20496;-67
2022/06/18 05:20:51;;;;;;;11.88;8.25;;;;;;;21.62;63.43;101592.47;5012432;28;20379;-67
2022/06/18 05:23:17;;;;;;;11.23;7.65;;;;;;;21.64;63.32;101594.00;4979375;28;20406;-67
2022/06/18 05:25:44;;;;;;;14.25;8.23;;;;;;;21.66;62.77;101588.47;5012843;28;20026;-67
2022/06/18 05:28:11;;;;;;;10.75;8.18;;;;;;;21.69;64.33;101607.13;5011622;28;20034;-67
2022/06/18 05:30:40;;;;;;;13.45;8.30;;;;;;;21.68;62.68;101597.28;5012570;28;20026;-67
2022/06/18 05:33:06;;;;;;;11.55;8.63;;;;;;;21.77;62.84;101604.50;5012045;28;20036;-67
2022/06/18 05:35:33;;;;;;;10.55;8.15;;;;;;;21.88;62.52;101612.41;5012619;28;20156;-67
2022/06/18 05:37:59;;;;;;;13.30;8.70;;;;;;;21.88;62.85;101615.09;5012558;28;20029;-67
2022/06/18 05:40:25;;;;;;;11.93;9.20;;;;;;;21.95;62.99;101618.09;5011289;28;20385;-67
2022/06/18 05:42:53;;;;;;;13.13;7.97;;;;;;;22.03;62.86;101623.59;4993616;28;20080;-67
2022/06/18 05:45:19;;;;;;;14.73;8.10;;;;;;;22.14;62.56;101617.09;5012494;28;20034;-67
2022/06/18 05:47:44;;;;;;;13.70;8.65;;;;;;;22.19;62.09;101615.66;4993971;28;20044;-67
2022/06/18 05:50:13;;;;;;;13.68;8.95;;;;;;;22.21;61.64;101620.94;5012414;28;20029;-67
2022/06/18 05:52:39;;;;;;;17.65;8.48;;;;;;;22.26;61.74;101615.03;5012127;28;20026;-67
2022/06/18 05:55:05;;;;;;;14.10;9.18;;;;;;;22.36;60.76;101624.81;5012192;28;20028;-67
2022/06/18 05:57:31;;;;;;;16.58;8.15;;;;;;;22.43;61.08;101611.47;4993604;28;20025;-67
2022/06/18 05:59:57;;;;;;;12.43;8.30;;;;;;;22.52;60.02;101617.81;4978529;28;20438;-67
2022/06/18 06:02:23;;;;;;;14.93;8.05;;;;;;;22.55;61.81;101607.50;5010225;28;20036;-67
2022/06/18 06:04:49;;;;;;;14.15;7.72;;;;;;;22.64;60.20;101614.69;5012168;28;20112;-67
2022/06/18 06:07:22;;;;;;;9.70;7.15;;;;;;;22.71;59.59;101605.94;4993933;28;20045;-68
2022/06/18 06:12:37;;;;;;;14.77;7.28;;;;;;;22.84;59.51;101603.69;5011607;28;20033;-68
2022/06/18 06:15:05;;;;;;;13.00;7.40;;;;;;;22.93;60.05;101605.44;4994764;28;20433;-68
2022/06/18 06:17:32;;;;;;;16.05;7.75;;;;;;;22.99;57.76;101598.56;5010115;28;20080;-68
2022/06/18 06:20:17;;;;;;;19.27;6.90;;;;;;;23.06;57.84;101595.06;4994736;28;20469;-68
2022/06/18 06:22:44;;;;;;;14.82;6.78;;;;;;;23.15;57.47;101597.78;4993962;28;20492;-68
2022/06/18 06:25:09;;;;;;;18.38;7.28;;;;;;;23.24;57.38;101586.84;5011612;28;20101;-68
2022/06/18 06:27:36;;;;;;;15.10;6.47;;;;;;;23.28;57.10;101582.78;4992117;28;20022;-68
2022/06/18 06:30:03;;;;;;;15.18;6.80;;;;;;;23.39;55.98;101594.38;4994334;28;20050;-68
2022/06/18 06:32:29;;;;;;;11.90;6.10;;;;;;;23.47;56.38;101597.09;5011188;28;20405;-68
2022/06/18 06:34:57;;;;;;;12.27;6.10;;;;;;;23.51;56.57;101593.91;5011717;28;20466;-68
2022/06/18 06:37:25;;;;;;;13.13;6.20;;;;;;;23.60;55.15;101605.66;4978536;28;20034;-68
2022/06/18 06:39:50;;;;;;;13.77;6.15;;;;;;;23.69;55.19;101601.13;4991714;28;20470;-68
2022/06/18 06:42:16;;;;;;;13.88;6.40;;;;;;;23.77;53.81;101601.19;5011216;28;20132;-68
2022/06/18 06:44:41;;;;;;;13.35;6.25;;;;;;;23.83;55.34;101596.97;4993268;28;20042;-68
2022/06/18 06:47:08;;;;;;;17.17;6.35;;;;;;;23.81;55.35;101588.97;4974641;28;20034;-68
2022/06/18 06:49:33;;;;;;;17.00;6.97;;;;;;;23.94;54.78;101594.78;5006202;28;20026;-68
2022/06/18 06:51:59;;;;;;;15.18;6.10;;;;;;;23.99;53.96;101597.00;4992191;28;20088;-68
2022/06/18 06:54:24;;;;;;;18.13;6.22;;;;;;;24.10;54.04;101598.53;4990580;28;20038;-68
2022/06/18 06:59:37;;;;;;;14.65;6.45;;;;;;;24.14;52.76;101595.31;4994908;28;20115;-68
2022/06/18 07:02:03;;;;;;;13.00;6.68;;;;;;;24.15;53.87;101602.47;4993002;28;20482;-69
2022/06/18 07:04:29;;;;;;;16.80;6.15;;;;;;;24.23;53.60;101596.19;4993615;28;20029;-69
2022/06/18 07:06:57;;;;;;;18.15;6.20;;;;;;;24.41;54.44;101604.19;4992841;28;20145;-68
2022/06/18 07:09:23;;;;;;;12.73;5.78;;;;;;;24.46;54.73;101604.56;4993709;28;20038;-68
2022/06/18 07:11:49;;;;;;;13.40;6.53;;;;;;;24.54;53.65;101606.44;4977385;28;20037;-68
2022/06/18 07:14:14;;;;;;;16.63;7.65;;;;;;;24.50;52.74;101605.91;4976688;28;20030;-68
2022/06/18 07:16:50;;;;;;;14.90;6.47;;;;;;;24.62;54.61;101606.41;5010080;28;20392;-68
2022/06/18 07:19:18;;;;;;;13.63;6.50;;;;;;;24.69;53.17;101600.13;4993323;28;20034;-68
2022/06/18 07:21:43;;;;;;;12.80;6.28;;;;;;;24.81;54.79;101606.06;5009932;28;20026;-68
2022/06/18 07:24:09;;;;;;;15.40;7.57;;;;;;;24.82;54.15;101604.19;4993372;28;20378;-68
2022/06/18 07:26:35;;;;;;;15.30;6.78;;;;;;;24.91;53.76;101597.72;4977002;28;20807;-68
2022/06/18 07:29:01;;;;;;;16.00;7.38;;;;;;;24.95;53.13;101598.25;4980022;28;20034;-68
2022/06/18 07:31:31;;;;;;;11.85;7.40;;;;;;;25.02;53.43;101597.38;4996794;28;20130;-68
2022/06/18 07:33:58;;;;;;;16.90;7.63;;;;;;;25.03;53.08;101598.22;5014289;28;20470;-68
2022/06/18 07:36:26;;;;;;;13.75;7.07;;;;;;;25.06;52.77;101586.97;4997275;28;20326;-68
2022/06/18 07:38:52;;;;;;;18.23;6.78;;;;;;;25.15;53.10;101595.00;5014782;28;20397;-68
2022/06/18 07:41:20;;;;;;;15.85;7.57;;;;;;;25.10;51.86;101589.19;5013902;28;20416;-68
2022/06/18 07:43:54;;;;;;;19.58;7.57;;;;;;;25.17;51.38;101591.25;5014027;28;20061;-68
2022/06/18 07:46:20;;;;;;;16.33;6.97;;;;;;;25.24;51.83;101576.75;5012381;28;20493;-68
2022/06/18 07:48:45;;;;;;;14.07;6.40;;;;;;;25.40;52.03;101584.03;5014565;28;20060;-68
2022/06/18 07:51:12;;;;;;;11.77;7.00;;;;;;;25.53;51.55;101583.44;4978811;28;20030;-67
2022/06/18 07:53:38;;;;;;;14.98;6.95;;;;;;;25.55;50.70;101589.56;5014339;28;20101;-68
2022/06/18 07:56:05;;;;;;;16.65;7.45;;;;;;;25.61;51.24;101580.69;4995803;28;20563;-68
2022/06/18 07:58:30;;;;;;;18.50;6.90;;;;;;;25.74;50.95;101588.31;4995473;28;20503;-68
2022/06/18 08:00:57;;;;;;;16.08;6.90;;;;;;;25.71;50.19;101585.94;5013924;28;20033;-68
2022/06/18 08:03:24;;;;;;;12.80;6.70;;;;;;;25.92;50.69;101582.63;5014300;28;20493;-67
2022/06/18 08:05:51;;;;;;;13.57;6.85;;;;;;;26.00;49.68;101582.53;4996863;28;20564;-67
2022/06/18 08:08:16;;;;;;;15.70;6.32;;;;;;;26.18;50.14;101576.81;5014112;28;20037;-67
2022/06/18 08:10:46;;;;;;;15.23;6.18;;;;;;;26.25;51.57;101572.31;5013382;28;20026;-67
2022/06/18 08:13:12;;;;;;;13.00;6.53;;;;;;;26.37;50.90;101570.84;5013128;28;20069;-67
2022/06/18 08:15:37;;;;;;;17.58;6.90;;;;;;;26.46;50.07;101567.03;5013388;28;20541;-67
2022/06/18 08:18:03;;;;;;;14.70;6.50;;;;;;;26.62;49.02;101565.19;4996431;28;20032;-67
2022/06/18 08:20:30;;;;;;;14.05;5.90;;;;;;;26.67;49.13;101560.88;4996351;28;20504;-67
2022/06/18 08:22:57;;;;;;;11.38;5.50;;;;;;;26.86;50.37;101570.44;5013949;28;20433;-67
2022/06/18 08:25:29;;;;;;;17.85;6.28;;;;;;;26.87;48.67;101565.81;5013249;28;20059;-67
2022/06/18 08:28:01;;;;;;;15.57;6.47;;;;;;;26.86;48.60;101556.78;5013466;28;20037;-67
2022/06/18 08:30:28;;;;;;;12.88;6.28;;;;;;;27.01;47.74;101553.22;4995682;28;20029;-67
2022/06/18 08:32:53;;;;;;;16.77;6.30;;;;;;;27.02;48.22;101544.00;5013979;28;20091;-71
2022/06/18 08:35:19;;;;;;;14.20;7.35;;;;;;;27.08;47.89;101551.44;5013338;28;20034;-70
2022/06/18 08:37:44;;;;;;;18.33;6.75;;;;;;;27.06;47.06;101548.03;4996047;28;20389;-70
2022/06/18 08:40:45;;;;;;;15.13;5.80;;;;;;;27.09;49.45;101545.78;4995558;28;20033;-71
2022/06/18 08:43:22;;;;;;;13.95;5.50;;;;;;;27.07;49.23;101550.59;5012781;28;20037;-72
2022/06/18 08:46:17;;;;;;;17.38;5.38;;;;;;;27.11;48.95;101554.63;5012140;28;20041;-72
2022/06/18 08:49:09;;;;;;;17.35;5.32;;;;;;;27.27;48.46;101547.31;4983211;28;20044;-72
2022/06/18 08:52:15;;;;;;;16.27;5.82;;;;;;;27.31;47.95;101544.00;4996009;28;20022;-71
2022/06/18 08:55:11;;;;;;;14.02;5.43;;;;;;;27.24;48.00;101551.28;5013290;28;20034;-72
2022/06/18 08:57:51;;;;;;;20.77;6.28;;;;;;;27.26;47.97;101551.06;5020954;28;20558;-72
2022/06/18 09:00:21;;;;;;;14.65;4.85;;;;;;;27.39;48.36;101554.84;5033426;28;20055;-72
2022/06/18 09:02:57;;;;;;;14.85;5.57;;;;;;;27.45;47.29;101555.13;5033348;28;20040;-71
2022/06/18 09:05:46;;;;;;;14.82;5.30;;;;;;;27.54;48.89;101560.28;5033061;28;20036;-72
2022/06/18 09:08:17;;;;;;;14.02;5.38;;;;;;;27.50;49.12;101555.38;5022684;28;20029;-72
2022/06/18 09:11:03;;;;;;;13.88;5.97;;;;;;;27.53;48.66;101552.25;5012761;28;20034;-72
2022/06/18 09:13:57;;;;;;;13.20;5.97;;;;;;;27.68;48.97;101565.91;5012584;28;20120;-72
2022/06/18 09:16:28;;;;;;;13.82;5.82;;;;;;;27.74;50.14;101559.69;5012671;28;20033;-72
2022/06/18 09:18:59;;;;;;;16.45;5.85;;;;;;;27.66;47.57;101563.38;5010926;28;20036;-72
2022/06/18 09:21:34;;;;;;;14.50;5.90;;;;;;;27.75;49.34;101553.16;5012574;28;20025;-65
2022/06/18 09:24:08;;;;;;;17.60;5.97;;;;;;;27.68;48.40;101553.09;4994732;28;20390;-62
2022/06/18 09:26:39;;;;;;;13.10;5.63;;;;;;;27.73;49.70;101566.16;5012544;28;20022;-63
2022/06/18 09:29:32;;;;;;;17.13;5.13;;;;;;;27.75;48.69;101555.91;5012578;28;20481;-65
2022/06/18 09:32:01;;;;;;;19.38;5.90;;;;;;;27.69;47.85;101556.66;5012986;28;20022;-64
2022/06/18 09:34:41;;;;;;;17.55;5.72;;;;;;;27.80;49.62;101564.41;5012154;28;20030;-62
2022/06/18 09:37:16;;;;;;;15.82;5.50;;;;;;;27.71;48.51;101554.56;4995269;28;20036;-63
2022/06/18 09:39:46;;;;;;;18.50;5.78;;;;;;;27.90;49.01;101553.16;5012536;28;20030;-67
2022/06/18 09:42:19;;;;;;;13.85;7.18;;;;;;;27.95;49.28;101553.44;5012499;28;20045;-68
2022/06/18 09:45:20;;;;;;;16.98;6.47;;;;;;;27.97;49.38;101551.31;5011765;28;20025;-67
2022/06/18 09:47:48;;;;;;;21.77;7.22;;;;;;;27.84;47.21;101546.56;5011296;28;20482;-68
2022/06/18 09:50:25;;;;;;;18.13;7.07;;;;;;;27.87;47.03;101542.59;4994734;28;20493;-68
2022/06/18 09:53:00;;;;;;;15.68;6.13;;;;;;;28.03;48.95;101535.00;5011907;28;20037;-69
2022/06/18 09:55:38;;;;;;;14.75;6.03;;;;;;;28.07;48.01;101538.19;4995026;28;20029;-66
2022/06/18 09:58:14;;;;;;;14.50;6.03;;;;;;;28.18;48.69;101536.78;5011201;28;20034;-70
2022/06/18 10:00:43;;;;;;;18.52;7.25;;;;;;;28.17;47.70;101527.75;4994611;28;20073;-68
2022/06/18 10:08:52;;;;;;;19.07;6.00;;;;;;;28.38;47.79;101528.78;5023171;28;20092;-65
2022/06/18 10:11:21;;;;;;;17.20;6.18;;;;;;;28.47;47.87;101524.88;5009914;28;20648;-64
2022/06/18 10:13:59;;;;;;;15.80;5.88;;;;;;;28.49;47.88;101522.78;4992608;28;20193;-63
2022/06/18 10:16:39;;;;;;;13.93;6.80;;;;;;;28.50;48.19;101528.09;5012115;28;20117;-62
2022/06/18 10:19:11;;;;;;;12.18;6.13;;;;;;;28.59;48.00;101526.06;5010397;28;20069;-62
2022/06/18 10:21:46;;;;;;;18.00;6.80;;;;;;;28.67;48.99;101527.78;5011844;28;20026;-62
2022/06/18 10:24:34;;;;;;;16.80;6.45;;;;;;;28.70;47.82;101525.47;5009452;28;20034;-60
2022/06/18 10:27:34;;;;;;;19.38;6.50;;;;;;;28.75;47.42;101519.41;5011759;28;20025;-70
2022/06/18 10:30:13;;;;;;;20.00;6.60;;;;;;;28.68;46.05;101521.28;5006003;28;20113;-68
2022/06/18 10:33:05;;;;;;;17.90;6.60;;;;;;;28.85;46.59;101508.94;5011739;28;20026;-67
2022/06/18 10:35:46;;;;;;;15.70;6.63;;;;;;;28.93;47.37;101510.66;5011800;28;20563;-67
2022/06/18 10:38:23;;;;;;;15.40;6.35;;;;;;;28.84;45.20;101509.97;5011395;28;20037;-73
2022/06/18 10:40:58;;;;;;;14.40;6.23;;;;;;;29.03;47.32;101507.59;5011657;28;21274;-73
2022/06/18 10:43:59;;;;;;;19.33;5.85;;;;;;;29.11;46.33;101501.94;5018112;28;20827;-73
2022/06/18 10:46:26;;;;;;;19.00;6.38;;;;;;;29.27;45.04;101495.25;5011490;28;20030;-72
2022/06/18 10:48:58;;;;;;;16.20;6.07;;;;;;;29.24;46.09;101496.53;5005516;28;20038;-72
2022/06/18 10:51:30;;;;;;;15.93;6.05;;;;;;;29.32;46.71;101492.75;5011226;28;20041;-73
2022/06/18 10:54:01;;;;;;;17.95;5.65;;;;;;;29.31;46.20;101493.81;4993366;28;20034;-73
2022/06/18 10:56:32;;;;;;;14.98;5.90;;;;;;;29.39;45.66;101483.53;5008796;28;20140;-73
2022/06/18 10:59:03;;;;;;;16.92;6.03;;;;;;;29.50;45.97;101487.53;4992800;28;20545;-74
2022/06/18 11:01:47;;;;;;;12.32;5.88;;;;;;;29.47;45.30;101474.25;5010941;28;20112;-72
2022/06/18 11:04:26;;;;;;;20.50;6.78;;;;;;;29.55;44.42;101485.03;5010531;28;20064;-74
2022/06/18 11:06:57;;;;;;;19.38;6.05;;;;;;;29.57;43.64;101482.94;5010128;28;20096;-73
2022/06/18 11:09:29;;;;;;;19.00;5.65;;;;;;;29.62;43.88;101477.72;4991915;28;20038;-74
2022/06/18 11:12:07;;;;;;;22.05;6.68;;;;;;;29.61;43.12;101473.22;5010876;28;20042;-68
2022/06/18 11:14:41;;;;;;;16.10;6.38;;;;;;;29.72;43.44;101476.47;4992389;28;20088;-64
2022/06/18 11:17:19;;;;;;;14.63;6.15;;;;;;;29.78;45.06;101470.16;5009754;28;20109;-65
2022/06/18 11:19:48;;;;;;;12.40;5.78;;;;;;;29.78;43.69;101464.66;5010814;28;20075;-63
2022/06/18 11:22:32;;;;;;;16.48;6.25;;;;;;;29.86;41.85;101458.97;4993416;28;20130;-62
2022/06/18 11:25:04;;;;;;;20.00;6.70;;;;;;;29.78;41.51;101453.69;5010266;28;20037;-62
2022/06/18 11:27:35;;;;;;;14.73;6.53;;;;;;;29.92;43.60;101446.34;5008389;28;20137;-68
2022/06/18 11:30:08;;;;;;;12.63;5.53;;;;;;;29.87;44.08;101455.19;5009851;28;20037;-64
2022/06/18 11:32:42;;;;;;;16.85;5.40;;;;;;;30.04;43.08;101442.72;5009577;28;20030;-66
2022/06/18 11:35:08;;;;;;;16.80;6.15;;;;;;;30.17;42.00;101438.28;5010517;28;20036;-63
2022/06/18 11:37:33;;;;;;;19.50;6.00;;;;;;;30.13;41.80;101431.56;5010125;28;20106;-63
2022/06/18 11:40:02;;;;;;;24.38;6.32;;;;;;;30.26;40.80;101428.81;5010102;28;20034;-66
2022/06/18 11:42:31;;;;;;;19.23;6.07;;;;;;;30.36;42.59;101418.25;5009825;28;20060;-66
2022/06/18 11:45:06;;;;;;;17.70;5.88;;;;;;;30.46;42.58;101420.56;4992672;28;20029;-70
2022/06/18 11:47:52;;;;;;;18.45;5.13;;;;;;;30.49;41.62;101412.72;5010354;28;20021;-62
2022/06/18 11:50:29;;;;;;;18.77;5.40;;;;;;;30.43;41.38;101416.31;4952138;28;20045;-67
2022/06/18 11:53:16;;;;;;;14.25;5.10;;;;;;;30.42;40.30;101416.56;5010226;28;20069;-66